This is the latest recevied weather packets stored in our database for station/object KF3BH. If no packets are shown the sender has not sent any weather packets the latest 10 day(s).
| Time | Temp. | Humidity | Pressure | Rain* | Wind** | Luminosity | Snow |
|---|---|---|---|---|---|---|---|
| 1777419024 | 12.22° C | 68% | 1017.5 hPa | 0 mm | - | 9 W/m² | - |
| 1777418425 | 12.22° C | 68% | 1017.5 hPa | 0 mm | - | 12 W/m² | - |
| 1777417825 | 12.22° C | 67% | 1017.5 hPa | 0 mm | - | 18 W/m² | - |
| 1777417225 | 12.22° C | 68% | 1017.7 hPa | 0 mm | - | 11 W/m² | - |
| 1777410025 | 12.22° C | 69% | 1017.7 hPa | 0 mm | - | 65 W/m² | - |
| 1777407625 | 12.22° C | 70% | 1017.7 hPa | 0 mm | - | 125 W/m² | - |
| 1777407025 | 12.22° C | 71% | 1018 hPa | 0 mm | - | 125 W/m² | - |
| 1777392025 | 12.78° C | 63% | 1020 hPa | 0 mm | - | 193 W/m² | - |
| 1777386025 | 12.78° C | 59% | 1020.2 hPa | 0 mm | - | 120 W/m² | - |
| 1777378825 | 10.56° C | 70% | 1020.3 hPa | 0 mm | - | 130 W/m² | - |
| 1777377025 | 10.56° C | 68% | 1020.5 hPa | 0 mm | - | 120 W/m² | - |
| 1777369225 | 9.44° C | 63% | 1020.6 hPa | 0 mm | - | 0 W/m² | - |
| 1777365025 | 9.44° C | 61% | 1021.3 hPa | 0 mm | - | 0 W/m² | - |
| 1777351225 | 13.89° C | 58% | 1022.1 hPa | 0 mm | - | 0 W/m² | - |
| 1777344025 | 15.56° C | 50% | 1022.6 hPa | 0 mm | - | 0 W/m² | - |
| 1777343425 | 15.56° C | 50% | 1022.8 hPa | 0 mm | - | 0 W/m² | - |
| 1777342225 | 16.11° C | 49% | 1022.8 hPa | 0 mm | - | 0 W/m² | - |
| 1777341625 | 16.11° C | 49% | 1022.9 hPa | 0 mm | - | 0 W/m² | - |
| 1777332025 | 19.44° C | 36% | 1022 hPa | 0 mm | - | 40 W/m² | - |
| 1777331425 | 20° C | 36% | 1021.9 hPa | 0 mm | - | 56 W/m² | - |
| 1777330225 | 20.56° C | 35% | 1021.6 hPa | 0 mm | - | 105 W/m² | - |
| 1777329625 | 20.56° C | 35% | 1021.7 hPa | 0 mm | - | 151 W/m² | - |
| 1777323625 | 21.67° C | 34% | 1021.9 hPa | 0 mm | - | 431 W/m² | - |
| 1777321225 | 21.67° C | 36% | 1022 hPa | 0 mm | - | 476 W/m² | - |
| 1777320025 | 22.78° C | 36% | 1022.5 hPa | 0 mm | - | 53 W/m² | - |
* Rain latest hour (hover to see other rain measurements)
** Current wind speed in m/s (hover to see current wind gust speed)